Time;durP1;ratioP1;P1;durP2;ratioP2;P2;SDS_P1;SDS_P2;PMS_P1;PMS_P2;Temp;Humidity;BMP_temperature;BMP_pressure;BME280_temperature;BME280_humidity;BME280_pressure;Samples;Min_cycle;Max_cycle;Signal;HPM_P1;HPM_P2
2022/09/15 00:00:59;;;;;;;17.38;2.50;;;;;;;23.68;100.00;94000.44;4961741;28;20069;-89
2022/09/15 00:03:25;;;;;;;17.02;2.67;;;;;;;23.26;100.00;94005.53;4961755;28;20029;-90
2022/09/15 00:05:52;;;;;;;13.80;2.22;;;;;;;23.40;100.00;94009.56;4945822;28;20027;-90
2022/09/15 00:08:18;;;;;;;8.95;2.20;;;;;;;23.49;100.00;94006.66;4945518;28;20026;-90
2022/09/15 00:10:52;;;;;;;12.20;2.65;;;;;;;23.70;100.00;94004.28;4961354;28;20344;-90
2022/09/15 00:13:19;;;;;;;9.85;2.50;;;;;;;23.60;100.00;93988.88;4961234;28;20428;-89
2022/09/15 00:15:44;;;;;;;10.40;2.22;;;;;;;23.32;100.00;93983.84;4961441;28;20070;-92
2022/09/15 00:18:37;;;;;;;11.52;2.75;;;;;;;23.43;100.00;93960.75;4960465;28;20580;-90
2022/09/15 00:21:05;;;;;;;12.93;2.40;;;;;;;23.41;100.00;93952.31;4977516;28;20038;-89
2022/09/15 00:23:31;;;;;;;14.57;2.53;;;;;;;23.52;100.00;93953.22;4944486;28;20365;-91
2022/09/15 00:25:56;;;;;;;21.80;2.72;;;;;;;23.41;100.00;93949.63;4961034;28;20034;-90
2022/09/15 00:28:22;;;;;;;17.30;3.28;;;;;;;23.28;100.00;93941.81;4960807;28;20034;-91
2022/09/15 00:30:50;;;;;;;21.50;3.17;;;;;;;23.08;100.00;93933.09;4978025;28;20098;-90
2022/09/15 00:33:16;;;;;;;17.35;3.03;;;;;;;23.19;100.00;93943.94;4960592;28;20030;-91
2022/09/15 00:35:44;;;;;;;11.52;2.53;;;;;;;23.16;100.00;93937.41;4960915;28;20052;-91
2022/09/15 00:38:11;;;;;;;18.33;3.08;;;;;;;23.15;100.00;93943.09;4960798;28;20404;-90
2022/09/15 00:40:46;;;;;;;12.90;2.55;;;;;;;23.38;100.00;93947.66;4960759;28;20026;-90
2022/09/15 00:43:12;;;;;;;15.40;2.53;;;;;;;23.62;100.00;93932.34;4960906;28;20066;-90
2022/09/15 00:45:38;;;;;;;6.40;2.20;;;;;;;23.65;100.00;93936.97;4960949;28;20062;-91
2022/09/15 00:48:05;;;;;;;12.07;2.53;;;;;;;23.45;100.00;93926.41;4960712;28;20031;-89
2022/09/15 00:50:31;;;;;;;16.80;2.97;;;;;;;23.50;100.00;93918.06;4944595;28;20471;-90
2022/09/15 00:53:00;;;;;;;14.05;2.45;;;;;;;23.75;100.00;93925.66;4960919;28;20444;-90
2022/09/15 00:55:25;;;;;;;13.02;2.30;;;;;;;23.68;100.00;93925.56;4960621;28;20027;-89
2022/09/15 00:57:58;;;;;;;13.00;2.92;;;;;;;23.42;100.00;93922.53;4960697;28;20038;-89
2022/09/15 01:00:26;;;;;;;11.65;2.80;;;;;;;23.34;100.00;93914.78;4960376;28;20030;-88
2022/09/15 01:02:53;;;;;;;12.68;2.22;;;;;;;23.32;100.00;93911.69;4960868;28;20109;-89
2022/09/15 01:05:22;;;;;;;10.70;2.55;;;;;;;23.30;100.00;93934.22;4960734;28;20027;-89
2022/09/15 01:07:55;;;;;;;12.88;2.22;;;;;;;23.37;100.00;93940.78;4945036;28;20080;-90
2022/09/15 01:10:31;;;;;;;7.95;2.20;;;;;;;23.07;100.00;93946.78;4944775;28;20038;-90
2022/09/15 01:13:05;;;;;;;9.23;2.20;;;;;;;23.18;100.00;93945.06;4960476;28;20023;-90
2022/09/15 01:15:55;;;;;;;10.55;2.60;;;;;;;23.22;100.00;93945.88;4944616;28;20353;-90
2022/09/15 01:18:25;;;;;;;16.52;2.70;;;;;;;22.92;100.00;93961.81;4960580;28;20034;-89
2022/09/15 01:21:00;;;;;;;9.32;2.40;;;;;;;22.73;100.00;93952.72;4977384;28;20034;-89
2022/09/15 01:23:54;;;;;;;8.32;2.33;;;;;;;22.89;100.00;93941.94;4960852;28;20035;-89
2022/09/15 01:26:41;;;;;;;10.60;2.25;;;;;;;22.70;100.00;93954.22;4960747;28;20041;-90
2022/09/15 01:29:53;;;;;;;11.35;2.33;;;;;;;22.93;100.00;93953.44;4980507;28;20041;-90
2022/09/15 01:33:03;;;;;;;13.98;2.53;;;;;;;22.57;100.00;93958.19;4914100;28;20031;-90
2022/09/15 01:36:00;;;;;;;9.30;2.30;;;;;;;22.75;100.00;93921.13;4966597;28;20031;-90
2022/09/15 01:38:40;;;;;;;12.70;2.22;;;;;;;22.80;100.00;93928.81;4944771;28;20337;-90
2022/09/15 01:41:34;;;;;;;15.52;3.00;;;;;;;22.72;100.00;93943.16;4963986;28;20031;-89
2022/09/15 01:44:04;;;;;;;;;;;;;;;22.62;100.00;93931.19;4965146;28;20041;-90
2022/09/15 01:46:34;;;;;;;11.23;2.78;;;;;;;22.25;100.00;93924.41;4963834;28;19968;-89
2022/09/15 01:49:00;;;;;;;12.55;2.50;;;;;;;22.38;100.00;93924.25;4948450;28;20336;-89
2022/09/15 01:51:27;;;;;;;9.65;2.30;;;;;;;22.54;100.00;93924.94;4964053;28;20031;-90
2022/09/15 01:53:53;;;;;;;7.20;2.15;;;;;;;22.44;100.00;93910.25;4948151;28;20088;-89
2022/09/15 01:56:19;;;;;;;10.10;2.45;;;;;;;22.18;100.00;93886.94;4964321;28;20129;-90
2022/09/15 01:58:44;;;;;;;7.32;2.55;;;;;;;22.49;100.00;93887.88;4947965;28;20084;-89
2022/09/15 02:01:39;;;;;;;7.22;2.00;;;;;;;22.63;100.00;93879.31;4963858;28;20452;-89
2022/09/15 02:04:14;;;;;;;10.95;1.92;;;;;;;22.55;100.00;93896.38;4964726;28;20058;-89
2022/09/15 02:06:50;;;;;;;7.80;1.92;;;;;;;22.16;100.00;93905.94;4963751;28;20035;-89
2022/09/15 02:09:35;;;;;;;8.18;2.03;;;;;;;22.13;100.00;93905.88;4964043;28;20031;-91
2022/09/15 02:12:18;;;;;;;9.18;2.17;;;;;;;22.58;100.00;93890.31;4963636;28;20125;-90
2022/09/15 02:15:02;;;;;;;3.78;1.60;;;;;;;22.62;100.00;93871.69;4963422;28;20086;-90
2022/09/15 02:17:31;;;;;;;7.07;1.75;;;;;;;22.62;100.00;93883.13;4947888;28;20129;-90
2022/09/15 02:20:08;;;;;;;8.30;1.60;;;;;;;22.74;100.00;93895.53;4947459;28;20031;-90
2022/09/15 02:22:36;;;;;;;13.27;2.10;;;;;;;22.59;100.00;93899.84;4963539;28;20027;-89
2022/09/15 02:25:21;;;;;;;7.18;1.52;;;;;;;22.50;100.00;93901.97;4963672;28;20438;-89
2022/09/15 02:27:49;;;;;;;9.55;1.92;;;;;;;22.76;100.00;93892.50;4947539;28;20066;-89
2022/09/15 02:30:19;;;;;;;14.90;2.30;;;;;;;22.30;100.00;93883.31;4947200;28;20031;-89
2022/09/15 02:32:54;;;;;;;9.98;1.90;;;;;;;22.53;100.00;93880.69;4963055;28;20463;-89
2022/09/15 02:35:24;;;;;;;11.13;2.20;;;;;;;22.15;100.00;93885.72;4963554;28;20027;-89
2022/09/15 02:37:51;;;;;;;9.80;2.00;;;;;;;22.57;100.00;93875.41;4963263;28;20129;-89
2022/09/15 02:40:17;;;;;;;10.07;2.03;;;;;;;22.72;100.00;93847.03;4962510;28;20428;-89
2022/09/15 02:42:54;;;;;;;9.93;2.13;;;;;;;22.30;100.00;93849.38;4978816;28;20037;-90
2022/09/15 02:45:20;;;;;;;11.63;2.08;;;;;;;21.80;100.00;93857.25;4943836;29;20042;-90
2022/09/15 02:47:58;;;;;;;6.72;1.60;;;;;;;22.57;100.00;93822.03;4943292;29;20031;-89
2022/09/15 02:50:27;;;;;;;6.95;1.88;;;;;;;22.65;100.00;93802.31;4943773;29;20038;-89
2022/09/15 02:52:56;;;;;;;6.35;1.55;;;;;;;22.86;100.00;93812.53;4944108;29;20090;-89
2022/09/15 02:55:22;;;;;;;12.20;2.22;;;;;;;22.74;100.00;93796.75;4943676;29;20047;-90
2022/09/15 03:01:14;;;;;;;7.30;1.65;;;;;;;22.54;100.00;93814.75;4960514;29;20034;-90
2022/09/15 03:03:40;;;;;;;10.98;2.03;;;;;;;22.24;100.00;93807.38;4943957;29;20033;-90
2022/09/15 03:06:18;;;;;;;9.25;1.75;;;;;;;22.57;100.00;93803.34;4943053;29;20031;-90
2022/09/15 03:08:49;;;;;;;11.50;2.10;;;;;;;22.40;100.00;93813.34;4944807;29;20036;-89
2022/09/15 03:11:15;;;;;;;5.15;1.67;;;;;;;22.16;100.00;93820.56;4943909;29;20030;-89
2022/09/15 03:13:41;;;;;;;7.47;2.25;;;;;;;22.24;100.00;93834.06;4943199;29;20401;-90
2022/09/15 03:16:11;;;;;;;10.07;2.13;;;;;;;22.41;100.00;93833.59;4960453;29;20027;-89
2022/09/15 03:18:37;;;;;;;9.60;2.20;;;;;;;22.59;100.00;93820.56;4942990;29;20453;-90
2022/09/15 03:21:04;;;;;;;13.15;2.25;;;;;;;22.55;100.00;93809.03;4942919;29;20169;-90
2022/09/15 03:23:29;;;;;;;12.18;2.10;;;;;;;22.43;100.00;93801.97;4942862;29;20065;-89
2022/09/15 03:25:57;;;;;;;8.52;2.05;;;;;;;22.53;100.00;93797.19;4943105;29;20444;-88
2022/09/15 03:28:23;;;;;;;10.55;1.80;;;;;;;22.57;100.00;93793.44;4959923;29;20027;-89
2022/09/15 03:30:48;;;;;;;13.85;2.25;;;;;;;22.26;100.00;93808.53;4960087;29;20094;-90
2022/09/15 03:33:14;;;;;;;14.43;2.20;;;;;;;22.38;100.00;93804.94;4942918;29;20511;-91
2022/09/15 03:35:39;;;;;;;10.65;2.28;;;;;;;22.25;100.00;93788.31;4942360;29;20031;-90
2022/09/15 03:38:05;;;;;;;11.98;2.13;;;;;;;22.51;100.00;93796.75;4926987;29;20027;-89
2022/09/15 03:40:32;;;;;;;10.38;2.28;;;;;;;22.44;100.00;93806.16;4942667;29;20027;-89
2022/09/15 03:42:58;;;;;;;6.88;2.42;;;;;;;22.45;100.00;93773.00;4943245;29;20019;-89
2022/09/15 03:45:24;;;;;;;10.18;2.00;;;;;;;22.39;100.00;93768.34;4943036;28;20373;-90
2022/09/15 03:47:49;;;;;;;20.05;2.47;;;;;;;22.53;100.00;93757.16;4942554;29;20038;-90
2022/09/15 03:50:15;;;;;;;11.68;2.15;;;;;;;22.67;100.00;93749.34;4942258;29;20019;-90
2022/09/15 03:52:40;;;;;;;10.65;2.35;;;;;;;22.71;100.00;93760.84;4942698;29;20035;-89
2022/09/15 03:55:06;;;;;;;11.68;2.33;;;;;;;22.86;100.00;93769.81;4959875;29;20031;-89
2022/09/15 03:57:31;;;;;;;16.08;2.33;;;;;;;23.16;100.00;93771.72;4942470;29;20030;-90
2022/09/15 03:59:56;;;;;;;15.48;2.60;;;;;;;23.10;100.00;93772.44;4941767;29;20035;-91
2022/09/15 04:02:22;;;;;;;16.63;2.50;;;;;;;23.51;100.00;93780.59;4961579;28;20025;-89
2022/09/15 04:04:48;;;;;;;13.07;2.80;;;;;;;23.10;100.00;93778.53;4978716;28;20323;-89
2022/09/15 04:07:14;;;;;;;13.70;3.08;;;;;;;23.41;100.00;93765.22;4945799;28;20033;-91
2022/09/15 04:09:42;;;;;;;15.77;2.90;;;;;;;22.91;100.00;93768.75;4960873;28;20433;-89
2022/09/15 04:12:07;;;;;;;18.73;2.45;;;;;;;23.04;100.00;93755.16;4961420;28;20039;-89
2022/09/15 04:14:33;;;;;;;13.98;2.10;;;;;;;23.11;100.00;93760.63;4978582;28;20053;-89
2022/09/15 04:16:58;;;;;;;22.02;2.90;;;;;;;22.65;100.00;93756.19;4961399;28;20026;-89
2022/09/15 04:19:23;;;;;;;13.57;2.67;;;;;;;22.94;100.00;93754.66;4961188;28;20344;-87
2022/09/15 04:21:49;;;;;;;14.18;3.20;;;;;;;22.52;100.00;93772.38;4945892;28;20026;-87
2022/09/15 04:24:14;;;;;;;20.98;2.80;;;;;;;22.79;100.00;93776.97;4961289;28;20041;-88
2022/09/15 04:26:40;;;;;;;16.38;3.17;;;;;;;23.02;100.00;93787.56;4961389;28;20428;-88
2022/09/15 04:29:12;;;;;;;12.32;2.72;;;;;;;23.46;100.00;93783.59;4977087;28;20025;-89
2022/09/15 04:31:38;;;;;;;17.40;3.03;;;;;;;23.71;100.00;93778.50;4961212;28;20128;-88
2022/09/15 04:34:04;;;;;;;14.32;2.88;;;;;;;23.52;100.00;93798.16;4961323;28;20034;-89
2022/09/15 04:36:30;;;;;;;17.67;2.58;;;;;;;23.22;100.00;93806.94;4945370;28;20026;-88
2022/09/15 04:38:56;;;;;;;15.75;2.78;;;;;;;23.30;100.00;93810.50;4961044;28;20033;-88
2022/09/15 04:41:23;;;;;;;10.18;2.78;;;;;;;23.19;100.00;93799.63;4945665;28;20093;-91
2022/09/15 04:43:49;;;;;;;14.07;2.42;;;;;;;23.21;100.00;93801.97;4944973;28;20030;-91
2022/09/15 04:46:15;;;;;;;15.38;2.55;;;;;;;23.42;100.00;93812.94;4961039;28;20027;-91
2022/09/15 04:48:41;;;;;;;12.60;2.38;;;;;;;23.69;100.00;93831.59;4960408;28;20036;-89
2022/09/15 04:51:10;;;;;;;15.73;2.40;;;;;;;23.42;100.00;93838.91;4961326;28;20031;-90
2022/09/15 04:53:36;;;;;;;13.65;2.42;;;;;;;23.60;100.00;93846.38;4960709;28;20348;-90
2022/09/15 04:56:13;;;;;;;12.32;2.45;;;;;;;23.81;100.00;93840.53;4960786;28;20081;-89
2022/09/15 04:58:40;;;;;;;16.40;2.58;;;;;;;23.33;100.00;93833.84;4960389;28;20073;-90
2022/09/15 05:01:12;;;;;;;18.08;2.60;;;;;;;23.06;100.00;93817.03;4960380;28;20038;-91
2022/09/15 05:03:38;;;;;;;19.23;2.75;;;;;;;22.92;100.00;93817.59;4960243;28;20041;-91
2022/09/15 05:06:05;;;;;;;25.75;2.95;;;;;;;23.25;100.00;93819.59;4949719;29;20348;-90
2022/09/15 05:08:31;;;;;;;14.05;2.42;;;;;;;23.24;100.00;93818.06;4925766;29;20079;-90
2022/09/15 05:11:04;;;;;;;8.25;2.10;;;;;;;23.74;100.00;93827.84;4941482;29;20036;-92
2022/09/15 05:13:30;;;;;;;9.48;2.10;;;;;;;24.24;91.42;93810.78;4941077;29;20449;-90
2022/09/15 05:15:55;;;;;;;11.38;2.50;;;;;;;23.51;100.00;93823.34;4957352;29;20118;-92
2022/09/15 05:18:21;;;;;;;9.95;2.15;;;;;;;24.31;92.01;93820.78;4956111;28;20347;-90
2022/09/15 05:20:46;;;;;;;9.52;2.22;;;;;;;23.51;100.00;93827.94;4960108;28;20035;-91
2022/09/15 05:23:12;;;;;;;7.85;1.90;;;;;;;23.64;100.00;93833.81;4960120;28;20039;-91
2022/09/15 05:25:38;;;;;;;11.00;2.17;;;;;;;23.62;100.00;93836.88;4944820;28;20031;-91
2022/09/15 05:28:06;;;;;;;9.57;1.88;;;;;;;23.58;100.00;93822.69;4960034;28;20031;-91
2022/09/15 05:30:32;;;;;;;14.10;2.15;;;;;;;23.58;100.00;93825.34;4941088;29;20397;-91
2022/09/15 05:32:57;;;;;;;9.00;2.10;;;;;;;23.61;100.00;93847.91;4941244;29;20039;-90
2022/09/15 05:35:23;;;;;;;6.40;1.67;;;;;;;23.73;100.00;93826.31;4941646;29;20035;-91
2022/09/15 05:37:50;;;;;;;7.32;2.05;;;;;;;23.66;100.00;93818.19;4940999;29;20054;-90
2022/09/15 05:40:19;;;;;;;13.75;2.42;;;;;;;23.36;100.00;93843.03;4925439;29;20046;-90
2022/09/15 05:42:47;;;;;;;12.80;1.83;;;;;;;23.66;100.00;93844.91;4941550;29;20114;-91
2022/09/15 05:45:15;;;;;;;12.57;2.30;;;;;;;23.58;100.00;93852.09;4941195;29;20061;-90
2022/09/15 05:47:40;;;;;;;13.93;2.03;;;;;;;23.40;100.00;93857.22;4941690;29;20034;-91
2022/09/15 05:50:06;;;;;;;11.20;2.20;;;;;;;23.65;100.00;93848.72;4941056;29;20019;-90
2022/09/15 05:52:33;;;;;;;11.38;2.08;;;;;;;23.52;100.00;93845.53;4957030;29;20343;-89
2022/09/15 05:54:59;;;;;;;13.30;1.98;;;;;;;23.55;100.00;93858.16;4941737;29;20035;-90
2022/09/15 05:57:24;;;;;;;9.20;2.00;;;;;;;23.90;100.00;93870.44;4942732;28;20023;-90
2022/09/15 05:59:50;;;;;;;13.00;2.22;;;;;;;23.67;100.00;93879.31;4960109;28;20042;-91
2022/09/15 06:02:15;;;;;;;8.15;1.67;;;;;;;23.89;100.00;93882.28;4959795;28;20081;-90
2022/09/15 06:04:41;;;;;;;15.02;2.35;;;;;;;23.78;100.00;93889.41;4943849;28;20049;-90
2022/09/15 06:07:06;;;;;;;16.65;2.33;;;;;;;24.16;100.00;93876.09;4960366;28;20105;-91
2022/09/15 06:09:32;;;;;;;13.23;2.65;;;;;;;23.79;100.00;93886.34;4944301;28;20030;-90
2022/09/15 06:11:57;;;;;;;8.32;1.92;;;;;;;24.34;98.52;93895.00;4977126;28;20050;-89
2022/09/15 06:14:23;;;;;;;12.80;1.70;;;;;;;24.37;100.00;93910.34;4960188;28;20113;-91
2022/09/15 06:16:48;;;;;;;20.58;2.38;;;;;;;24.01;100.00;93914.13;4963421;28;20491;-90
2022/09/15 06:19:14;;;;;;;17.77;2.05;;;;;;;24.48;97.66;93911.22;4963021;28;20121;-91
2022/09/15 06:21:41;;;;;;;7.95;2.10;;;;;;;24.07;92.23;93897.78;4947762;28;20459;-90
2022/09/15 06:24:10;;;;;;;12.98;2.20;;;;;;;24.78;90.15;93894.31;4964010;28;20054;-90
2022/09/15 06:26:46;;;;;;;10.43;1.70;;;;;;;24.07;99.82;93906.56;4963198;28;20027;-89
2022/09/15 06:29:12;;;;;;;13.52;2.00;;;;;;;24.67;89.11;93914.84;4947465;28;20027;-89
2022/09/15 06:31:38;;;;;;;10.55;1.75;;;;;;;24.62;85.94;93933.91;4963332;28;20081;-90
2022/09/15 06:34:04;;;;;;;14.43;1.95;;;;;;;24.78;83.47;93928.34;4947253;28;20023;-89
2022/09/15 06:37:22;;;;;;;11.85;2.00;;;;;;;24.35;94.37;93921.41;4963669;28;20027;-91
2022/09/15 06:39:48;;;;;;;14.30;2.33;;;;;;;24.23;86.51;93908.25;4962832;28;20497;-90
2022/09/15 06:42:14;;;;;;;15.95;2.10;;;;;;;24.40;86.06;93909.59;4947131;28;20097;-91
2022/09/15 06:44:39;;;;;;;14.07;2.08;;;;;;;24.60;89.14;93899.47;4963216;28;20034;-90
2022/09/15 06:47:06;;;;;;;10.25;1.88;;;;;;;25.31;78.96;93887.00;4962881;28;20037;-90
2022/09/15 06:49:31;;;;;;;14.30;2.35;;;;;;;24.92;87.30;93887.53;4962960;28;20026;-91
2022/09/15 06:51:57;;;;;;;11.40;2.17;;;;;;;25.03;84.28;93888.34;4962711;28;20037;-90
2022/09/15 06:54:22;;;;;;;8.50;2.00;;;;;;;24.70;86.03;93898.81;4962661;28;20485;-89
2022/09/15 06:56:48;;;;;;;12.32;2.13;;;;;;;24.42;90.09;93893.94;4962916;28;20089;-91
2022/09/15 06:59:15;;;;;;;12.38;1.95;;;;;;;25.04;84.83;93900.63;4962945;28;20030;-91
2022/09/15 07:01:41;;;;;;;14.75;2.20;;;;;;;24.84;85.80;93918.84;4962492;28;20038;-90
2022/09/15 07:04:09;;;;;;;11.40;2.25;;;;;;;24.62;89.14;93923.22;4962625;28;20031;-91
2022/09/15 07:06:37;;;;;;;11.48;2.15;;;;;;;25.04;85.22;93913.25;4962793;28;20062;-91
2022/09/15 07:09:04;;;;;;;10.77;2.35;;;;;;;24.88;86.09;93908.13;4962229;28;20041;-90
2022/09/15 07:11:30;;;;;;;13.20;2.20;;;;;;;24.91;84.56;93899.38;4946823;28;20031;-90
2022/09/15 07:13:56;;;;;;;10.18;2.15;;;;;;;24.98;84.79;93892.16;4962497;28;20077;-91
2022/09/15 07:16:22;;;;;;;18.25;2.83;;;;;;;24.70;85.94;93890.75;4962845;28;20062;-92
2022/09/15 07:18:48;;;;;;;16.38;2.33;;;;;;;24.93;84.31;93884.44;4962154;28;20049;-91
2022/09/15 07:21:18;;;;;;;12.20;2.08;;;;;;;25.11;81.49;93889.19;4962112;28;20035;-90
2022/09/15 07:23:44;;;;;;;15.23;2.45;;;;;;;25.16;83.26;93886.16;4962477;28;20045;-91
2022/09/15 07:26:16;;;;;;;14.88;2.13;;;;;;;25.29;82.34;93862.50;4961970;28;20433;-90
2022/09/15 07:28:43;;;;;;;14.52;1.90;;;;;;;25.34;85.35;93869.41;4979430;28;20089;-91
2022/09/15 07:31:12;;;;;;;18.13;2.70;;;;;;;25.30;84.58;93845.25;4962279;28;20030;-90
2022/09/15 07:33:37;;;;;;;12.82;2.25;;;;;;;25.30;87.04;93850.63;4961927;28;20033;-90
2022/09/15 07:36:05;;;;;;;11.10;2.47;;;;;;;25.51;85.35;93852.69;4962392;28;20027;-90
2022/09/15 07:38:31;;;;;;;11.95;2.35;;;;;;;25.46;85.44;93844.97;4946127;28;20027;-90
2022/09/15 07:41:11;;;;;;;15.77;2.67;;;;;;;24.84;86.84;93854.56;4961900;28;20058;-91
2022/09/15 07:43:37;;;;;;;14.10;2.38;;;;;;;25.22;77.46;93857.84;4961980;28;20053;-90
2022/09/15 07:46:03;;;;;;;14.57;2.58;;;;;;;25.23;77.47;93843.31;4962014;28;20038;-90
2022/09/15 07:48:28;;;;;;;14.60;1.73;;;;;;;25.53;76.83;93853.06;4961860;28;20037;-90
2022/09/15 07:50:54;;;;;;;13.13;2.15;;;;;;;24.92;77.37;93858.81;4961779;28;20027;-92
2022/09/15 07:53:20;;;;;;;21.35;2.58;;;;;;;25.04;80.18;93873.06;4961780;28;20031;-92
2022/09/15 07:55:51;;;;;;;22.58;2.63;;;;;;;25.11;78.97;93876.56;4961518;28;20038;-92
2022/09/15 07:58:17;;;;;;;15.75;2.65;;;;;;;25.51;75.51;93884.84;4961572;28;20113;-90
2022/09/15 08:00:43;;;;;;;13.30;2.50;;;;;;;25.63;94.13;93891.84;4961555;28;20031;-91
2022/09/15 08:03:11;;;;;;;15.40;1.85;;;;;;;25.85;86.69;93875.81;4961683;28;20082;-90
2022/09/15 08:05:37;;;;;;;16.02;2.85;;;;;;;25.19;100.00;93863.22;4961647;28;20026;-90
2022/09/15 08:08:04;;;;;;;12.40;2.03;;;;;;;25.81;98.04;93865.06;4945758;28;20031;-91
2022/09/15 08:10:30;;;;;;;13.25;2.20;;;;;;;26.27;85.73;93878.28;4945880;28;20031;-91
2022/09/15 08:12:57;;;;;;;14.82;2.20;;;;;;;26.56;81.37;93884.47;4978790;28;20034;-92
2022/09/15 08:15:23;;;;;;;12.88;2.55;;;;;;;26.62;72.93;93882.94;4961453;28;20041;-90
2022/09/15 08:18:08;;;;;;;23.90;2.85;;;;;;;26.06;74.86;93877.81;4961276;28;20060;-91
2022/09/15 08:20:36;;;;;;;17.10;2.78;;;;;;;25.62;89.57;93863.47;4945256;28;20030;-91
2022/09/15 08:23:02;;;;;;;15.93;2.55;;;;;;;26.52;96.46;93864.88;4945237;28;20093;-92
2022/09/15 08:25:27;;;;;;;12.30;2.45;;;;;;;26.45;76.13;93868.34;4961095;28;20054;-91
2022/09/15 08:28:06;;;;;;;16.70;3.15;;;;;;;26.62;90.42;93874.13;4960992;28;20030;-91
2022/09/15 08:30:32;;;;;;;21.35;3.15;;;;;;;26.17;91.11;93877.09;4961246;28;20050;-91
2022/09/15 08:32:57;;;;;;;19.90;2.90;;;;;;;26.16;94.26;93878.97;4945223;28;20034;-91
2022/09/15 08:35:23;;;;;;;17.00;2.85;;;;;;;25.89;91.62;93865.09;4961477;28;20384;-92
2022/09/15 08:37:48;;;;;;;29.70;3.60;;;;;;;25.61;82.70;93869.19;4960356;28;20360;-91
2022/09/15 08:40:23;;;;;;;39.95;4.20;;;;;;;25.82;77.94;93869.31;4960735;28;20034;-91
2022/09/15 08:42:52;;;;;;;38.42;4.45;;;;;;;25.96;78.84;93868.59;4960771;28;20027;-91
2022/09/15 08:45:27;;;;;;;56.88;6.45;;;;;;;25.72;74.37;93866.56;4961000;28;20459;-92
2022/09/15 08:47:57;;;;;;;47.78;6.20;;;;;;;25.88;77.10;93874.31;4961158;28;20054;-90
2022/09/15 08:50:39;;;;;;;40.35;5.80;;;;;;;26.33;71.08;93863.34;4961026;28;20392;-90
2022/09/15 08:53:28;;;;;;;33.58;4.88;;;;;;;26.47;70.99;93859.91;4960914;28;20430;-91
2022/09/15 08:55:55;;;;;;;28.52;4.90;;;;;;;26.35;95.48;93869.09;4961228;28;20035;-93
2022/09/15 08:58:24;;;;;;;31.80;3.38;;;;;;;27.56;90.35;93859.88;4960806;28;20225;-92
2022/09/15 09:01:19;;;;;;;26.73;4.28;;;;;;;28.15;73.72;93848.47;4960752;28;20038;-90
2022/09/15 09:04:16;;;;;;;40.13;5.30;;;;;;;27.31;100.00;93836.47;4928329;28;20038;-91
2022/09/15 09:07:02;;;;;;;46.40;4.90;;;;;;;27.04;91.12;93832.31;4978037;28;20038;-90
2022/09/15 09:09:46;;;;;;;37.75;5.00;;;;;;;27.54;89.01;93835.28;4960939;28;20066;-91
2022/09/15 09:12:42;;;;;;;34.65;5.55;;;;;;;27.00;92.86;93847.66;4977700;28;20043;-90
2022/09/15 09:15:17;;;;;;;63.90;8.18;;;;;;;26.64;82.21;93829.59;4978085;28;20466;-91
2022/09/15 09:17:52;;;;;;;61.90;8.23;;;;;;;27.31;80.41;93823.03;4977682;28;20038;-91
2022/09/15 09:20:30;;;;;;;66.63;9.25;;;;;;;27.08;78.35;93818.84;4960867;28;20121;-91
2022/09/15 09:22:59;;;;;;;61.75;7.63;;;;;;;27.23;80.22;93831.09;4960682;28;20436;-91
2022/09/15 09:25:25;;;;;;;51.33;7.50;;;;;;;28.41;79.57;93835.66;4945018;28;20400;-91
2022/09/15 09:27:51;;;;;;;61.38;7.90;;;;;;;28.93;71.58;93839.53;4960893;28;20058;-92
2022/09/15 09:30:26;;;;;;;50.30;7.35;;;;;;;29.42;68.07;93836.75;4961486;28;20027;-92
2022/09/15 09:33:23;;;;;;;61.40;7.80;;;;;;;29.24;69.69;93828.03;4960794;28;20137;-93
2022/09/15 09:35:52;;;;;;;71.50;8.43;;;;;;;29.83;60.34;93815.47;4959748;28;20031;-92
2022/09/15 09:38:28;;;;;;;80.75;9.85;;;;;;;29.47;62.40;93824.75;4960752;28;20133;-91
2022/09/15 09:40:54;;;;;;;56.30;8.38;;;;;;;29.57;67.33;93844.69;4960536;28;20037;-91
2022/09/15 09:43:20;;;;;;;74.03;8.45;;;;;;;29.29;68.45;93841.13;4944412;28;20121;-93
2022/09/15 09:45:55;;;;;;;;;;;;;;;;;;;;;
2022/09/15 09:48:26;;;;;;;82.72;10.10;;;;;;;29.59;57.48;93835.00;4972442;28;20035;-91
2022/09/15 09:50:52;;;;;;;80.35;9.10;;;;;;;29.95;59.54;93822.25;4964352;28;20039;-91
2022/09/15 09:53:30;;;;;;;69.97;8.60;;;;;;;31.36;63.09;93820.13;4964332;28;20054;-91
2022/09/15 09:56:15;;;;;;;84.18;10.05;;;;;;;31.35;61.46;93826.72;4964565;28;20034;-92
2022/09/15 09:58:41;;;;;;;67.65;9.73;;;;;;;31.58;60.80;93831.31;4979464;28;20073;-92
2022/09/15 10:01:12;;;;;;;82.82;10.02;;;;;;;30.52;69.17;93836.91;4964029;28;20081;-93
2022/09/15 10:03:40;;;;;;;78.50;9.75;;;;;;;31.59;61.58;93829.38;4963864;28;20034;-91
2022/09/15 10:06:11;;;;;;;88.43;10.73;;;;;;;31.48;58.39;93839.63;4963732;28;20139;-91
2022/09/15 10:08:37;;;;;;;87.78;10.75;;;;;;;30.96;60.49;93828.16;4979627;28;20038;-89
2022/09/15 10:11:09;;;;;;;80.43;10.70;;;;;;;30.11;72.97;93827.09;4980175;28;20031;-89
2022/09/15 10:13:36;;;;;;;101.50;13.15;;;;;;;29.37;69.48;93804.78;4949966;28;20414;-88
2022/09/15 10:16:04;;;;;;;90.88;11.23;;;;;;;28.97;74.79;93794.41;4947787;28;20039;-91
2022/09/15 10:18:37;;;;;;;88.00;12.00;;;;;;;28.55;81.81;93802.47;4963637;28;20030;-91
2022/09/15 10:21:07;;;;;;;81.38;11.98;;;;;;;28.76;95.14;93789.97;4947715;28;20451;-94
2022/09/15 10:23:33;;;;;;;107.03;13.20;;;;;;;27.43;100.00;93784.97;4963215;28;20432;-90
2022/09/15 10:26:14;;;;;;;77.85;10.95;;;;;;;28.09;100.00;93785.44;4962988;28;20064;-91
2022/09/15 10:28:42;;;;;;;95.07;10.90;;;;;;;27.55;100.00;93789.16;4962848;28;20042;-91
2022/09/15 10:31:12;;;;;;;87.68;12.45;;;;;;;27.19;100.00;93789.25;4963580;28;20027;-91
2022/09/15 10:33:46;;;;;;;122.55;13.45;;;;;;;26.59;96.73;93795.06;4947190;28;20050;-91
2022/09/15 10:36:29;;;;;;;108.03;12.48;;;;;;;25.66;100.00;93799.88;4963877;28;20034;-90
2022/09/15 10:39:20;;;;;;;109.13;12.20;;;;;;;25.21;100.00;93799.28;4946996;28;20384;-91
2022/09/15 10:42:00;;;;;;;110.03;11.80;;;;;;;26.04;100.00;93815.69;4962806;28;20121;-91
2022/09/15 10:44:29;;;;;;;108.75;11.60;;;;;;;25.91;100.00;93825.25;4979284;28;20349;-91
2022/09/15 10:47:06;;;;;;;78.20;10.80;;;;;;;26.72;100.00;93832.28;4980132;28;20093;-91
2022/09/15 10:49:51;;;;;;;86.78;10.68;;;;;;;25.93;100.00;93828.31;4962784;28;20468;-91
2022/09/15 10:52:25;;;;;;;82.45;10.27;;;;;;;25.16;100.00;93827.19;4962696;28;20441;-91
2022/09/15 10:55:24;;;;;;;67.18;9.63;;;;;;;25.05;100.00;93826.34;4962848;28;20035;-91
2022/09/15 10:58:05;;;;;;;75.95;9.60;;;;;;;24.59;100.00;93806.09;4963045;28;20027;-90
2022/09/15 11:01:01;;;;;;;66.90;9.20;;;;;;;25.11;100.00;93812.22;4979088;28;20165;-92
2022/09/15 11:03:40;;;;;;;65.15;8.25;;;;;;;24.16;100.00;93823.31;4962984;28;20033;-90
2022/09/15 11:06:36;;;;;;;58.92;8.85;;;;;;;24.49;100.00;93835.13;4962929;28;20038;-91
2022/09/15 11:09:44;;;;;;;62.78;8.50;;;;;;;24.32;100.00;93822.31;4979626;28;20376;-91
2022/09/15 11:12:15;;;;;;;54.50;6.85;;;;;;;24.44;100.00;93819.38;4920145;29;20442;-90
2022/09/15 11:14:57;;;;;;;57.67;6.80;;;;;;;24.21;100.00;93793.56;4972413;28;20038;-90
2022/09/15 11:17:55;;;;;;;56.20;7.35;;;;;;;24.29;100.00;93805.84;4962327;28;20026;-92
2022/09/15 11:20:24;;;;;;;60.25;7.13;;;;;;;24.01;100.00;93809.03;4962341;28;20034;-90
2022/09/15 11:23:02;;;;;;;51.72;6.90;;;;;;;23.63;100.00;93826.94;4979495;28;20027;-90
2022/09/15 11:25:31;;;;;;;51.42;7.18;;;;;;;23.43;100.00;93843.88;4961995;28;20026;-90
2022/09/15 11:28:08;;;;;;;70.70;7.90;;;;;;;23.81;100.00;93829.81;4962519;28;20023;-91
2022/09/15 11:30:38;;;;;;;42.33;6.35;;;;;;;23.89;100.00;93826.09;4946355;28;20050;-90
2022/09/15 11:33:17;;;;;;;49.38;7.13;;;;;;;23.58;100.00;93822.69;4946044;28;20034;-92
2022/09/15 11:36:15;;;;;;;48.42;6.35;;;;;;;23.75;100.00;93826.69;4962309;28;20036;-90
2022/09/15 11:38:56;;;;;;;47.75;6.75;;;;;;;24.10;100.00;93824.81;4878007;28;20047;-90
2022/09/15 11:41:39;;;;;;;50.20;7.30;;;;;;;24.38;100.00;93829.63;4961745;28;20045;-92
2022/09/15 11:44:21;;;;;;;43.30;6.30;;;;;;;25.20;100.00;93827.97;4978798;28;20026;-91